Time;durP1;ratioP1;P1;durP2;ratioP2;P2;SDS_P1;SDS_P2;PMS_P1;PMS_P2;Temp;Humidity;BMP_temperature;BMP_pressure;BME280_temperature;BME280_humidity;BME280_pressure;Samples;Min_cycle;Max_cycle;Signal;HPM_P1;HPM_P2
2023/06/01 06:43:08;;;;;;;11.93;3.67;;;;;;;17.97;47.94;99156.91;6189776;22;20548;-87
2023/06/01 06:45:35;;;;;;;8.15;2.90;;;;;;;18.36;49.15;99194.75;6139257;23;20103;-91
2023/06/01 06:48:01;;;;;;;8.30;3.30;;;;;;;18.16;47.79;99158.03;6176834;23;20021;-90
2023/06/01 06:50:27;;;;;;;16.70;3.40;;;;;;;18.43;48.02;99165.22;6124387;23;20075;-91
2023/06/01 06:52:54;;;;;;;15.82;3.20;;;;;;;18.39;46.70;99160.81;6192929;23;20021;-90
2023/06/01 06:55:21;;;;;;;9.57;2.95;;;;;;;18.32;46.84;99147.66;6143621;23;20016;-89
2023/06/01 06:57:47;;;;;;;17.00;3.75;;;;;;;18.34;48.77;99134.22;6194743;23;20013;-90
2023/06/01 07:00:15;;;;;;;10.55;3.13;;;;;;;18.45;47.49;99129.69;6198890;23;20559;-89
2023/06/01 07:02:44;;;;;;;8.60;3.65;;;;;;;18.69;47.87;99150.63;6119330;23;20019;-91
2023/06/01 07:05:10;;;;;;;12.13;3.35;;;;;;;18.82;49.74;99142.97;6169089;23;20021;-91
2023/06/01 07:07:37;;;;;;;10.57;4.82;;;;;;;18.86;46.93;99135.50;6147106;23;20017;-92
2023/06/01 07:10:05;;;;;;;6.35;3.35;;;;;;;18.97;45.68;99158.63;6145466;23;20024;-89
2023/06/01 07:12:31;;;;;;;10.00;2.90;;;;;;;18.68;43.50;99115.03;6194783;23;20023;-90
2023/06/01 07:14:57;;;;;;;5.78;2.90;;;;;;;18.77;45.92;99102.53;6169088;23;20028;-94
2023/06/01 07:17:23;;;;;;;9.93;3.17;;;;;;;19.02;45.33;99130.59;6148421;23;20025;-91
2023/06/01 07:19:56;;;;;;;7.53;3.17;;;;;;;19.25;45.14;99149.91;6199778;23;20044;-89
2023/06/01 07:22:22;;;;;;;11.73;3.10;;;;;;;19.11;45.58;99102.63;6122737;23;20017;-83
2023/06/01 07:24:49;;;;;;;9.32;3.30;;;;;;;19.44;45.42;99154.53;6125310;23;20119;-88
2023/06/01 07:27:17;;;;;;;6.28;3.10;;;;;;;19.18;44.46;99111.03;6169075;23;20021;-91
2023/06/01 07:29:44;;;;;;;12.10;3.13;;;;;;;19.29;42.42;99118.69;6117665;23;20043;-90
2023/06/01 07:32:10;;;;;;;9.60;2.95;;;;;;;19.28;42.23;99106.78;6190159;23;20111;-88
2023/06/01 07:34:36;;;;;;;11.43;3.13;;;;;;;19.48;43.58;99121.28;6141196;23;20025;-92
2023/06/01 07:37:27;;;;;;;17.63;3.55;;;;;;;19.45;42.46;99108.97;6164256;23;20889;-88
2023/06/01 07:39:55;;;;;;;10.07;3.15;;;;;;;19.51;41.75;99098.38;6188893;23;20024;-89
2023/06/01 07:42:22;;;;;;;9.47;2.77;;;;;;;19.81;41.87;99130.81;6221680;23;20023;-91
2023/06/01 07:44:48;;;;;;;14.02;3.00;;;;;;;19.63;41.60;99111.16;6220946;23;20020;-90
2023/06/01 07:47:15;;;;;;;;;;;;;;;19.75;41.22;99135.91;6221550;23;20099;-88
2023/06/01 07:49:41;;;;;;;5.28;2.45;;;;;;;19.52;41.49;99088.06;6196994;23;20416;-90
2023/06/01 07:52:07;;;;;;;9.40;2.30;;;;;;;;;;6223387;23;20446;-90
2023/06/01 07:54:37;;;;;;;8.13;2.17;;;;;;;19.87;39.78;99134.84;6198789;23;20042;-92
2023/06/01 07:57:04;;;;;;;11.23;2.50;;;;;;;19.88;39.19;99117.03;6177153;23;20351;-89
2023/06/01 07:59:37;;;;;;;5.88;3.00;;;;;;;19.85;41.94;99099.16;6197796;23;20024;-92
2023/06/01 08:02:03;;;;;;;3.35;2.20;;;;;;;19.55;40.02;99046.53;6222664;23;20039;-88
2023/06/01 08:04:33;;;;;;;7.63;2.30;;;;;;;19.70;41.22;99070.50;6226273;23;20024;-91
2023/06/01 08:07:06;;;;;;;7.55;2.47;;;;;;;19.75;38.94;99077.66;6224417;23;20027;-90
2023/06/01 08:09:32;;;;;;;7.60;2.30;;;;;;;19.75;39.85;99061.03;6172934;23;20081;-90
2023/06/01 08:12:00;;;;;;;8.55;2.67;;;;;;;19.92;40.00;99081.78;6196380;23;20024;-92
2023/06/01 08:14:27;;;;;;;9.23;3.28;;;;;;;19.98;39.75;99083.03;6220202;23;20020;-93
2023/06/01 08:16:53;;;;;;;8.43;2.72;;;;;;;20.12;40.99;99082.38;6223778;23;20016;-90
2023/06/01 08:19:19;;;;;;;8.20;3.00;;;;;;;20.34;40.62;99086.16;6220573;23;20067;-87
2023/06/01 08:48:19;;;;;;;5.85;2.17;;;;;;;20.87;38.08;99092.09;6191632;22;20029;-90
2023/06/01 08:51:05;;;;;;;6.60;2.70;;;;;;;20.87;39.14;99085.75;6187749;23;20026;-90
2023/06/01 08:53:38;;;;;;;;;;;;;;;20.87;36.96;99092.09;6164419;23;20017;-87
2023/06/01 08:56:30;;;;;;;19.27;2.67;;;;;;;20.50;37.09;99020.03;6182641;23;19931;-85
2023/06/01 08:59:13;;;;;;;24.48;3.35;;;;;;;20.54;38.32;99026.41;6186533;23;20081;-87
2023/06/01 09:02:48;;;;;;;7.72;2.97;;;;;;;20.89;38.12;99072.25;6180231;23;20099;-93
2023/06/01 09:05:14;;;;;;;8.45;2.75;;;;;;;20.80;38.77;99024.59;6188676;23;20048;-85
2023/06/01 09:08:02;;;;;;;8.05;2.78;;;;;;;20.84;37.34;99019.84;6186747;23;20047;-87
2023/06/01 09:10:46;;;;;;;7.38;3.25;;;;;;;20.94;37.93;99015.53;6101710;23;20022;-89
2023/06/01 09:13:33;;;;;;;;;;;;;;;21.43;37.85;99062.22;6076016;23;20115;-86
2023/06/01 09:16:01;;;;;;;9.05;2.58;;;;;;;21.17;35.55;99029.13;6098827;23;19917;-85
2023/06/01 09:18:28;;;;;;;9.95;2.80;;;;;;;21.41;35.77;99061.00;6073561;23;20444;-84
2023/06/01 09:20:56;;;;;;;6.97;2.80;;;;;;;21.49;37.51;99057.06;6094717;23;20022;-85
2023/06/01 09:23:35;;;;;;;12.85;2.83;;;;;;;21.54;36.91;99062.25;6070181;23;20061;-86
2023/06/01 09:29:18;;;;;;;10.55;3.10;;;;;;;21.25;34.31;99056.56;6093326;23;20046;-87
2023/06/01 09:31:46;;;;;;;5.93;2.70;;;;;;;21.30;35.21;99047.84;6093469;23;20018;-86
2023/06/01 09:34:18;;;;;;;9.48;3.45;;;;;;;21.18;34.73;99022.38;6070126;23;20021;-88
2023/06/01 09:40:37;;;;;;;16.20;3.47;;;;;;;21.72;37.13;99053.94;6078650;23;20022;-87
2023/06/01 09:47:37;;;;;;;7.78;2.90;;;;;;;21.43;33.89;98994.69;6186011;23;20031;-90
2023/06/01 09:50:32;;;;;;;13.18;3.40;;;;;;;22.02;34.78;99037.69;6159588;23;20021;-88
2023/06/01 09:52:59;;;;;;;10.75;3.05;;;;;;;21.87;33.35;99036.09;6135603;23;20048;-88
2023/06/01 09:55:25;;;;;;;;;;;;;;;21.95;33.50;99042.44;6138325;23;20025;-89
2023/06/01 09:57:51;;;;;;;13.65;3.78;;;;;;;22.04;32.97;99049.22;6184197;23;19912;-86
2023/06/01 10:00:24;;;;;;;11.80;3.00;;;;;;;21.94;31.81;99018.59;6133848;23;20075;-87
2023/06/01 10:03:17;;;;;;;8.50;2.70;;;;;;;21.90;31.25;99032.50;6186159;23;20324;-87
2023/06/01 10:06:34;;;;;;;20.65;2.70;;;;;;;21.91;30.25;99042.44;6189124;23;20383;-86
2023/06/01 10:09:49;;;;;;;9.40;2.97;;;;;;;21.98;31.81;99038.88;6163050;23;20350;-88
2023/06/01 10:12:15;;;;;;;9.43;3.28;;;;;;;21.76;32.40;98982.41;6189887;23;20416;-88
2023/06/01 10:14:45;;;;;;;9.63;2.90;;;;;;;21.86;31.46;98991.97;6188155;23;20028;-86
2023/06/01 10:21:06;;;;;;;8.75;2.65;;;;;;;22.32;31.16;99036.53;6192188;23;20100;-87
2023/06/01 10:23:32;;;;;;;7.00;2.60;;;;;;;22.15;29.46;99012.22;6186971;23;20079;-86
2023/06/01 10:26:09;;;;;;;5.40;2.78;;;;;;;22.24;31.81;99019.03;6162156;23;20032;-86
2023/06/01 10:28:50;;;;;;;22.95;3.95;;;;;;;22.02;31.00;98965.34;6187970;23;20032;-88
2023/06/01 10:31:33;;;;;;;9.55;3.35;;;;;;;22.14;30.69;98982.81;6185217;23;20021;-87
2023/06/01 10:33:59;;;;;;;6.03;2.88;;;;;;;22.33;30.48;99012.25;6134696;23;20446;-86
2023/06/01 10:36:51;;;;;;;8.88;3.03;;;;;;;22.42;30.72;99021.81;6194488;23;20063;-93
2023/06/01 10:39:24;;;;;;;15.48;3.60;;;;;;;22.59;32.66;99017.41;6189671;23;20021;-88
2023/06/01 10:41:57;;;;;;;11.60;2.58;;;;;;;22.88;34.26;99017.31;6190509;23;20021;-87
2023/06/01 10:49:11;;;;;;;12.23;2.50;;;;;;;22.66;29.97;98997.88;6188263;23;20477;-85
2023/06/01 10:51:39;;;;;;;7.68;2.35;;;;;;;22.91;32.42;99013.72;6186004;23;20462;-90
2023/06/01 10:54:30;;;;;;;11.63;2.53;;;;;;;22.97;31.57;99003.75;6194860;23;20044;-85
2023/06/01 10:57:25;;;;;;;13.80;3.25;;;;;;;23.03;29.50;99015.31;6197113;23;20450;-87
2023/06/01 11:00:18;;;;;;;11.32;3.30;;;;;;;22.88;29.65;99008.94;6192222;23;20024;-87
2023/06/01 11:03:06;;;;;;;15.35;3.70;;;;;;;23.02;29.35;99017.31;6135487;23;20087;-87
2023/06/01 11:05:56;;;;;;;15.68;3.72;;;;;;;23.05;29.71;98993.41;6139901;23;20072;-87
2023/06/01 11:08:21;;;;;;;8.77;3.03;;;;;;;23.35;30.25;99015.97;6188585;23;20017;-87
2023/06/01 11:10:50;;;;;;;11.07;2.70;;;;;;;23.35;29.62;99006.78;6185432;23;20079;-86
2023/06/01 11:13:19;;;;;;;11.63;3.25;;;;;;;23.24;28.83;99023.56;6159111;23;20017;-87
2023/06/01 11:16:03;;;;;;;10.07;2.90;;;;;;;23.29;28.98;99014.00;6189370;23;20586;-92
2023/06/01 11:22:53;;;;;;;9.10;3.50;;;;;;;23.33;28.20;99017.56;6156118;23;20020;-85
2023/06/01 11:25:21;;;;;;;;;;;;;;;23.28;28.17;99010.41;6156387;23;20018;-85
2023/06/01 11:27:47;;;;;;;9.20;3.10;;;;;;;23.50;30.62;98997.13;6158112;23;20342;-86
2023/06/01 11:30:19;;;;;;;16.98;2.67;;;;;;;23.75;31.16;99007.38;6156052;23;20553;-88
2023/06/01 11:32:48;;;;;;;15.45;3.70;;;;;;;23.65;30.08;98975.53;6131457;23;20024;-89
2023/06/01 11:35:18;;;;;;;12.88;3.20;;;;;;;23.73;28.87;98993.03;6161128;23;20017;-89
2023/06/01 11:37:49;;;;;;;10.63;2.50;;;;;;;23.86;29.60;99010.88;6135197;23;20021;-88
2023/06/01 11:40:16;;;;;;;5.38;2.92;;;;;;;23.71;28.63;98993.44;6104802;23;20024;-89
2023/06/01 11:42:41;;;;;;;;;;;;;;;23.90;30.09;99004.06;6155183;23;20335;-87
2023/06/01 11:45:41;;;;;;;4.47;2.60;;;;;;;23.85;28.08;99006.50;6133621;23;19916;-86
2023/06/01 11:48:11;;;;;;;13.90;2.90;;;;;;;23.84;28.65;99002.94;6046513;23;20018;-86
2023/06/01 11:50:46;;;;;;;11.32;3.05;;;;;;;23.78;29.07;98995.41;6070009;23;20057;-86
2023/06/01 11:53:12;;;;;;;4.70;2.33;;;;;;;23.57;28.82;98963.59;6045289;23;20345;-85
2023/06/01 11:55:49;;;;;;;6.95;2.85;;;;;;;23.79;30.30;98972.66;6094037;23;20062;-87
2023/06/01 11:58:38;;;;;;;6.65;2.60;;;;;;;24.14;28.47;98993.91;6067267;23;20030;-87
2023/06/01 12:01:07;;;;;;;9.57;2.88;;;;;;;24.03;28.99;98995.19;6093669;23;20126;-85
2023/06/01 12:03:33;;;;;;;14.98;3.13;;;;;;;23.97;27.94;98989.25;6092615;23;20018;-85
2023/06/01 12:05:59;;;;;;;27.42;4.38;;;;;;;23.91;31.93;98949.03;6094939;23;20029;-92
2023/06/01 12:08:25;;;;;;;8.10;3.35;;;;;;;24.32;29.71;98981.75;6095542;23;20042;-91
2023/06/01 12:10:52;;;;;;;6.75;3.10;;;;;;;24.35;28.54;98986.53;6092527;23;20018;-86
2023/06/01 12:13:20;;;;;;;7.75;2.63;;;;;;;24.45;28.61;98976.47;6090985;23;20361;-86
2023/06/01 12:15:53;;;;;;;4.70;2.72;;;;;;;24.48;28.05;98995.22;6093407;23;20022;-86
2023/06/01 12:19:15;;;;;;;10.07;2.77;;;;;;;24.49;29.03;98988.41;6046072;23;20109;-86
2023/06/01 12:22:03;;;;;;;6.70;2.72;;;;;;;24.57;27.25;98985.13;6074056;23;20022;-88
2023/06/01 12:24:35;;;;;;;5.25;2.67;;;;;;;24.50;28.23;98951.69;6117537;23;20025;-90
2023/06/01 12:27:26;;;;;;;9.25;2.97;;;;;;;24.85;30.44;98981.22;6136201;23;20021;-90
2023/06/01 12:30:42;;;;;;;9.13;2.70;;;;;;;24.85;28.37;98983.22;6098440;23;20340;-91
2023/06/01 12:33:34;;;;;;;12.10;3.45;;;;;;;24.79;27.85;98990.47;6134479;23;20522;-84
2023/06/01 12:36:12;;;;;;;8.75;3.45;;;;;;;24.63;27.84;98990.25;6156554;23;20025;-89
2023/06/01 12:38:52;;;;;;;16.00;3.58;;;;;;;24.47;27.70;98994.44;6158150;23;20017;-93
2023/06/01 12:41:18;;;;;;;17.52;4.15;;;;;;;24.43;27.57;98990.06;6156174;23;20024;-91
2023/06/01 12:43:45;;;;;;;16.10;3.75;;;;;;;24.39;28.55;98987.28;6156932;23;20045;-87
2023/06/01 12:46:26;;;;;;;10.05;3.30;;;;;;;24.45;27.47;98987.66;6129677;23;20025;-85
2023/06/01 12:48:54;;;;;;;9.48;3.35;;;;;;;24.51;28.23;98984.00;6157100;23;20048;-85
2023/06/01 12:51:22;;;;;;;24.85;3.50;;;;;;;24.69;28.34;98971.81;6159143;23;20017;-95
2023/06/01 12:53:48;;;;;;;10.77;3.10;;;;;;;24.41;29.46;98984.91;6107247;23;20018;-89
2023/06/01 12:56:15;;;;;;;10.82;3.85;;;;;;;23.79;29.44;98961.47;6153467;23;20018;-88
2023/06/01 12:58:41;;;;;;;;;;;;;;;24.01;28.71;98987.22;6180414;23;20064;-88
2023/06/01 13:01:07;;;;;;;16.25;3.20;;;;;;;24.03;28.30;98968.06;6154517;23;19916;-88
2023/06/01 13:03:33;;;;;;;11.20;3.10;;;;;;;24.41;29.73;98970.94;6158307;23;20022;-85
2023/06/01 13:06:00;;;;;;;4.47;2.55;;;;;;;24.18;29.75;98932.44;6155344;23;20024;-83
2023/06/01 13:08:26;;;;;;;9.13;3.30;;;;;;;24.37;28.17;98979.31;6153765;23;20021;-86
2023/06/01 13:10:54;;;;;;;7.35;3.20;;;;;;;24.23;29.36;98961.91;6157043;23;20026;-85
2023/06/01 13:13:20;;;;;;;16.65;7.35;;;;;;;24.33;27.87;98978.53;6157021;23;20025;-86
2023/06/01 13:15:48;;;;;;;16.75;5.13;;;;;;;24.02;28.81;98977.66;6158159;23;20017;-90
2023/06/01 13:18:15;;;;;;;20.30;5.00;;;;;;;23.63;30.10;98984.28;6155098;23;20043;-84
2023/06/01 13:20:41;;;;;;;21.52;5.25;;;;;;;23.80;28.37;98970.63;6156398;23;20485;-87
2023/06/01 13:23:10;;;;;;;12.18;3.38;;;;;;;23.65;28.97;98973.53;6129820;23;20017;-87
2023/06/01 13:25:38;;;;;;;22.30;4.18;;;;;;;23.67;29.54;98971.13;6128066;23;20045;-91
2023/06/01 13:28:04;;;;;;;9.10;3.85;;;;;;;23.72;31.65;98966.34;6156024;23;20025;-84
2023/06/01 13:30:33;;;;;;;;;;;;;;;23.98;29.27;98981.69;6178597;23;20013;-86
2023/06/01 13:32:59;;;;;;;14.52;3.58;;;;;;;23.97;29.16;98974.50;6129816;23;19916;-90
2023/06/01 13:35:25;;;;;;;9.07;3.15;;;;;;;24.06;29.80;98958.06;6164704;23;20017;-86
2023/06/01 13:37:52;;;;;;;19.83;3.65;;;;;;;24.28;29.06;98959.44;6131588;23;20021;-86
2023/06/01 13:40:22;;;;;;;13.95;3.67;;;;;;;24.42;28.84;98964.13;6154740;23;20024;-86
2023/06/01 13:42:52;;;;;;;9.63;3.20;;;;;;;24.62;31.23;98969.91;6179022;23;20087;-86
2023/06/01 13:45:20;;;;;;;11.85;3.08;;;;;;;24.76;29.30;98971.75;6107016;23;20020;-89
2023/06/01 13:47:46;;;;;;;20.58;3.70;;;;;;;24.45;28.52;98960.50;6128176;23;20459;-84
2023/06/01 13:50:13;;;;;;;15.25;4.00;;;;;;;24.39;28.29;98956.53;6153769;23;20547;-85
2023/06/01 13:52:40;;;;;;;18.88;4.40;;;;;;;24.52;28.79;98966.00;6127512;23;20044;-86
2023/06/01 13:55:07;;;;;;;18.27;3.92;;;;;;;24.49;29.63;98966.84;6153519;23;20024;-93
2023/06/01 13:57:34;;;;;;;15.63;3.47;;;;;;;24.50;28.96;98981.59;6127974;23;20021;-84
2023/06/01 14:00:01;;;;;;;11.27;3.45;;;;;;;24.49;28.34;98980.03;6153761;23;20519;-85
2023/06/01 14:02:30;;;;;;;11.05;3.40;;;;;;;24.38;28.07;98982.91;6129019;23;20534;-86
2023/06/01 14:04:56;;;;;;;13.32;3.55;;;;;;;24.13;28.92;98981.13;6129375;23;20018;-85
2023/06/01 14:07:22;;;;;;;19.83;3.97;;;;;;;24.03;30.06;98975.63;6154054;23;20032;-84
2023/06/01 14:09:48;;;;;;;14.32;3.83;;;;;;;24.16;30.32;98962.75;6153903;23;20014;-86
2023/06/01 14:12:14;;;;;;;8.85;3.28;;;;;;;24.55;30.12;98979.16;6154368;23;20022;-82
2023/06/01 14:14:40;;;;;;;9.02;3.13;;;;;;;24.79;29.63;98976.50;6153415;23;20025;-85
2023/06/01 14:17:06;;;;;;;11.32;2.85;;;;;;;24.81;29.29;98962.91;6155506;23;20023;-86
2023/06/01 14:19:32;;;;;;;5.55;2.85;;;;;;;25.00;29.34;98981.84;6156768;23;20444;-86
2023/06/01 14:22:00;;;;;;;9.15;3.42;;;;;;;24.59;28.69;98991.09;6127229;23;20025;-91
2023/06/01 14:24:26;;;;;;;16.02;3.38;;;;;;;24.49;29.30;98966.84;6156972;23;20092;-87
2023/06/01 14:26:52;;;;;;;8.50;3.38;;;;;;;24.07;29.32;98960.47;6157943;23;20036;-92
2023/06/01 14:29:18;;;;;;;11.90;3.20;;;;;;;23.76;29.54;98976.25;6131390;23;20013;-90
2023/06/01 14:31:47;;;;;;;12.52;3.50;;;;;;;23.50;31.05;98983.19;6158204;23;20080;-90
2023/06/01 14:34:15;;;;;;;20.77;4.25;;;;;;;23.48;31.01;98984.78;6130427;23;20107;-86
2023/06/01 14:36:42;;;;;;;6.38;3.55;;;;;;;23.49;31.26;98964.84;6154225;23;20375;-86
2023/06/01 14:39:09;;;;;;;11.68;3.78;;;;;;;23.89;30.62;98970.97;6156512;23;20021;-86
2023/06/01 14:41:35;;;;;;;18.23;3.70;;;;;;;24.27;30.35;98968.22;6154942;23;20028;-93
2023/06/01 14:44:01;;;;;;;18.75;4.40;;;;;;;24.53;30.22;98984.34;6131369;23;20069;-86
2023/06/01 14:46:27;;;;;;;26.38;4.07;;;;;;;24.31;30.72;98975.38;6154807;23;20025;-87
2023/06/01 14:48:59;;;;;;;15.80;4.40;;;;;;;24.25;31.73;98979.84;6154281;23;20021;-86
2023/06/01 14:51:27;;;;;;;16.65;4.07;;;;;;;24.37;30.16;98976.53;6153564;23;20459;-86
2023/06/01 14:53:53;;;;;;;;;;;;;;;24.47;29.75;98983.25;6128303;23;20088;-87
2023/06/01 14:56:22;;;;;;;12.23;3.90;;;;;;;24.33;29.79;98955.41;6154703;23;20473;-85
2023/06/01 14:58:47;;;;;;;11.77;3.55;;;;;;;24.54;31.12;98976.78;6157965;23;20045;-86
2023/06/01 15:01:14;;;;;;;9.25;3.38;;;;;;;24.54;29.42;98962.81;6157793;23;20025;-86
2023/06/01 15:03:53;;;;;;;11.32;3.80;;;;;;;24.55;30.12;98967.19;6155218;23;20017;-91
2023/06/01 15:06:19;;;;;;;7.65;4.35;;;;;;;24.25;31.12;98977.03;6156830;23;20028;-94
2023/06/01 15:08:47;;;;;;;11.07;3.53;;;;;;;23.90;31.36;98975.34;6159669;23;20108;-86
2023/06/01 15:11:14;;;;;;;15.63;3.30;;;;;;;23.87;31.18;98976.16;6108297;23;20022;-88
2023/06/01 15:13:43;;;;;;;7.45;3.50;;;;;;;23.78;31.83;98970.28;6158658;23;20093;-88
2023/06/01 15:16:09;;;;;;;7.68;3.65;;;;;;;23.71;31.55;98970.31;6157735;23;20024;-93
2023/06/01 15:18:36;;;;;;;6.85;3.47;;;;;;;23.98;30.79;98970.50;6157512;23;20021;-89
2023/06/01 15:21:02;;;;;;;9.07;3.47;;;;;;;23.87;31.61;98963.03;6131609;23;20033;-91
2023/06/01 15:23:29;;;;;;;23.25;3.65;;;;;;;23.68;30.70;98960.78;6133232;23;20025;-90
2023/06/01 15:25:56;;;;;;;6.18;3.30;;;;;;;23.49;30.94;98973.22;6156062;23;20025;-87
2023/06/01 15:28:24;;;;;;;89.40;7.25;;;;;;;23.43;31.31;98963.69;6133164;23;20354;-92
2023/06/01 15:30:50;;;;;;;;;;;;;;;23.21;31.33;98963.84;6129441;23;20048;-89
2023/06/01 15:33:16;;;;;;;9.40;3.25;;;;;;;22.96;31.83;98949.22;6154284;23;19916;-92
2023/06/01 15:35:44;;;;;;;17.75;3.78;;;;;;;22.98;32.23;98958.00;6132890;23;20467;-86
2023/06/01 15:38:12;;;;;;;12.07;4.38;;;;;;;22.89;32.41;98963.16;6157002;23;20056;-93
2023/06/01 15:40:38;;;;;;;16.70;4.05;;;;;;;22.79;33.42;98962.00;6132985;23;20352;-89
2023/06/01 15:43:35;;;;;;;21.92;4.35;;;;;;;22.77;33.93;98967.19;6183169;23;20013;-87
2023/06/01 15:46:05;;;;;;;11.82;4.15;;;;;;;22.74;34.02;98962.41;6160334;23;20040;-87
2023/06/01 15:48:33;;;;;;;22.88;4.30;;;;;;;22.65;33.14;98962.03;6183106;23;20021;-94
2023/06/01 15:51:00;;;;;;;8.98;3.70;;;;;;;22.60;33.29;98957.69;6161021;23;20021;-87
2023/06/01 15:53:27;;;;;;;12.07;4.20;;;;;;;22.54;33.71;98959.28;6162665;23;20566;-90
2023/06/01 15:55:53;;;;;;;32.10;4.93;;;;;;;22.41;35.17;98953.34;6159717;23;20017;-86
2023/06/01 15:58:19;;;;;;;13.40;4.47;;;;;;;22.18;33.92;98944.66;6159356;23;20083;-92
2023/06/01 16:00:45;;;;;;;12.35;4.00;;;;;;;22.05;33.46;98924.75;6158519;23;20022;-87
2023/06/01 16:03:15;;;;;;;16.55;4.20;;;;;;;22.32;34.33;98966.91;6162592;23;20041;-85
2023/06/01 16:05:41;;;;;;;22.25;4.30;;;;;;;22.37;34.77;98968.50;6162271;23;20029;-85
2023/06/01 16:08:07;;;;;;;22.50;4.05;;;;;;;22.28;34.88;98946.63;6183982;23;20030;-90
2023/06/01 16:10:33;;;;;;;11.93;3.80;;;;;;;22.17;35.07;98943.06;6159446;23;20427;-86
2023/06/01 16:13:00;;;;;;;12.90;3.80;;;;;;;22.21;34.16;98954.97;6158711;23;20017;-87
2023/06/01 16:15:26;;;;;;;12.35;4.07;;;;;;;22.18;35.07;98953.78;6159755;23;20420;-85
2023/06/01 16:17:52;;;;;;;11.95;4.28;;;;;;;22.12;36.10;98952.59;6157855;23;20085;-84
2023/06/01 16:20:18;;;;;;;9.85;3.83;;;;;;;22.04;36.42;98945.44;6159390;23;20028;-92
2023/06/01 16:22:44;;;;;;;16.02;4.32;;;;;;;21.91;36.81;98942.25;6132872;23;20021;-85
2023/06/01 16:25:10;;;;;;;29.13;4.47;;;;;;;21.94;35.84;98951.81;6159275;23;20013;-86
2023/06/01 16:27:37;;;;;;;22.75;3.90;;;;;;;21.81;36.55;98956.97;6183782;23;20026;-86
2023/06/01 16:30:04;;;;;;;12.07;4.27;;;;;;;21.75;36.78;98942.66;6154280;23;20163;-83
2023/06/01 16:32:32;;;;;;;11.88;4.07;;;;;;;21.64;36.94;98935.50;6152215;23;20253;-90
2023/06/01 16:34:58;;;;;;;18.73;4.43;;;;;;;21.64;36.67;98932.72;6151951;23;20404;-84
2023/06/01 16:37:24;;;;;;;19.77;4.47;;;;;;;21.68;37.16;98961.34;6153168;23;20017;-83
2023/06/01 16:39:50;;;;;;;12.50;4.73;;;;;;;21.53;36.70;98950.22;6128060;23;20024;-83
2023/06/01 16:42:15;;;;;;;14.43;4.33;;;;;;;21.35;36.70;98924.34;6153561;23;20719;-81
2023/06/01 16:44:42;;;;;;;17.20;5.00;;;;;;;21.55;37.25;98960.91;6102027;23;20020;-91
2023/06/01 16:47:10;;;;;;;14.95;4.20;;;;;;;21.54;36.97;98957.34;6126704;23;20021;-84
2023/06/01 16:49:36;;;;;;;12.45;4.38;;;;;;;21.50;37.14;98956.56;6127169;23;20017;-90
2023/06/01 16:52:02;;;;;;;21.08;5.30;;;;;;;21.45;37.85;98956.13;6127943;23;20133;-88
2023/06/01 16:54:29;;;;;;;27.03;5.30;;;;;;;21.35;39.25;98955.72;6152885;23;20045;-83
2023/06/01 16:56:55;;;;;;;12.90;4.95;;;;;;;21.25;38.23;98933.44;6153233;23;20352;-89
2023/06/01 16:59:22;;;;;;;24.00;5.10;;;;;;;21.13;38.48;98933.81;6126368;23;20017;-84
2023/06/01 17:02:08;;;;;;;16.73;4.90;;;;;;;21.07;38.09;98931.41;6092675;23;20314;-90
2023/06/01 17:04:34;;;;;;;22.73;5.67;;;;;;;21.08;39.07;98940.53;6067256;23;20511;-85
2023/06/01 17:07:00;;;;;;;21.50;5.50;;;;;;;21.17;38.27;98960.44;6065428;23;20274;-85
2023/06/01 17:09:29;;;;;;;22.40;5.75;;;;;;;21.15;39.13;98962.78;6088651;23;20038;-85
2023/06/01 17:11:55;;;;;;;25.23;6.82;;;;;;;21.10;38.96;98957.63;6042289;23;20018;-86
2023/06/01 17:14:22;;;;;;;13.27;6.57;;;;;;;21.06;38.92;98960.41;6088760;23;20057;-83
2023/06/01 17:16:50;;;;;;;18.90;7.00;;;;;;;21.05;38.25;98960.78;6092775;23;20018;-84
2023/06/01 17:19:17;;;;;;;22.88;7.25;;;;;;;20.93;39.02;98950.84;6099175;23;20114;-88
2023/06/01 17:22:30;;;;;;;22.02;5.78;;;;;;;21.01;37.88;98962.75;6082606;23;20037;-84
2023/06/01 17:24:57;;;;;;;16.98;5.35;;;;;;;20.97;38.75;98967.50;6064664;23;20025;-86
2023/06/01 17:27:23;;;;;;;23.88;5.15;;;;;;;20.84;38.51;98965.06;6087822;23;20797;-83
2023/06/01 17:29:49;;;;;;;20.92;5.68;;;;;;;20.77;38.93;98959.50;6088327;23;20025;-83
2023/06/01 17:32:16;;;;;;;25.80;6.60;;;;;;;20.81;38.99;98979.75;6014811;23;20018;-82
2023/06/01 17:34:45;;;;;;;28.20;6.35;;;;;;;20.62;38.26;98947.50;6041504;23;20081;-83
2023/06/01 17:37:20;;;;;;;28.88;8.27;;;;;;;20.44;39.35;98945.81;6040972;23;20022;-87
2023/06/01 17:39:47;;;;;;;40.03;8.23;;;;;;;20.49;38.76;98959.31;6134983;23;20025;-86
2023/06/01 17:42:14;;;;;;;16.00;6.10;;;;;;;20.45;38.58;98958.50;6171499;23;20025;-85
2023/06/01 17:44:42;;;;;;;24.95;5.75;;;;;;;20.51;38.26;98979.19;6148975;23;20890;-86
2023/06/01 17:47:08;;;;;;;16.38;5.43;;;;;;;20.40;38.98;98962.44;6170427;23;20021;-85
2023/06/01 17:49:34;;;;;;;22.47;6.57;;;;;;;20.33;38.96;98968.75;6146331;23;20049;-83
2023/06/01 17:52:01;;;;;;;29.05;5.75;;;;;;;20.21;39.16;98952.41;6144970;23;20028;-88
2023/06/01 17:54:29;;;;;;;22.55;5.68;;;;;;;20.26;39.03;98967.91;6144522;23;20408;-84
2023/06/01 17:56:55;;;;;;;22.70;7.50;;;;;;;20.19;39.37;98974.19;6144349;23;20064;-85
2023/06/01 17:59:22;;;;;;;27.52;5.80;;;;;;;20.21;39.83;98971.03;6146171;23;20108;-85
2023/06/01 18:01:49;;;;;;;19.35;4.40;;;;;;;20.21;40.18;98985.72;6144491;23;20071;-90
2023/06/01 18:04:16;;;;;;;18.90;4.35;;;;;;;20.11;39.86;98969.78;6144003;23;20391;-86
2023/06/01 18:06:43;;;;;;;21.45;4.60;;;;;;;20.05;39.85;98974.88;6142436;23;20096;-83
2023/06/01 18:09:10;;;;;;;16.30;4.37;;;;;;;20.12;40.17;98990.78;6094152;23;20017;-83
2023/06/01 18:11:37;;;;;;;18.40;4.53;;;;;;;20.00;40.08;98971.66;6118535;23;20245;-88
2023/06/01 18:14:05;;;;;;;12.65;4.18;;;;;;;20.10;40.77;98991.19;6120364;23;20029;-84
2023/06/01 18:16:31;;;;;;;22.00;4.43;;;;;;;19.91;40.66;98969.25;6143996;23;20025;-85
2023/06/01 18:18:57;;;;;;;16.63;4.70;;;;;;;20.02;40.79;98994.28;6167266;23;20017;-85
2023/06/01 18:21:23;;;;;;;19.17;4.43;;;;;;;19.98;40.95;98991.47;6144271;23;20072;-89
2023/06/01 18:23:50;;;;;;;21.67;5.17;;;;;;;19.89;41.18;98993.78;6118782;23;20107;-84
2023/06/01 18:26:17;;;;;;;18.45;5.75;;;;;;;19.84;41.22;98989.41;6142601;23;20021;-88
2023/06/01 18:28:43;;;;;;;17.85;5.10;;;;;;;19.83;41.63;98998.09;6144326;23;20022;-85
2023/06/01 18:31:13;;;;;;;;;;;;;;;19.81;42.09;98994.91;6118624;23;20021;-85
2023/06/01 18:33:41;;;;;;;28.70;6.95;;;;;;;19.70;42.26;98998.38;6118168;23;20386;-90
2023/06/01 18:36:06;;;;;;;;;;;;;;;;;;6119924;23;20013;-88
2023/06/01 18:38:33;;;;;;;19.73;5.63;;;;;;;19.61;42.72;99000.63;6144706;23;20063;-84
2023/06/01 18:40:59;;;;;;;15.05;5.10;;;;;;;19.57;42.39;99001.75;6048686;23;20021;-86
2023/06/01 18:43:25;;;;;;;14.50;5.05;;;;;;;19.47;43.31;99001.28;6119395;23;20014;-88
2023/06/01 18:45:52;;;;;;;24.25;4.97;;;;;;;19.45;43.40;99003.63;6143566;23;20018;-84
2023/06/01 18:48:22;;;;;;;16.75;4.95;;;;;;;19.45;43.11;99009.19;6147058;23;20176;-88
2023/06/01 18:50:59;;;;;;;27.55;5.85;;;;;;;19.24;43.41;98978.47;6170250;23;20024;-90
2023/06/01 18:53:26;;;;;;;25.58;5.20;;;;;;;19.43;43.50;99005.97;6142723;23;20021;-86
2023/06/01 18:56:02;;;;;;;27.20;5.50;;;;;;;19.06;43.35;98958.88;6119251;23;20463;-91
2023/06/01 18:58:29;;;;;;;21.23;4.47;;;;;;;19.20;43.99;98969.31;6141997;23;20080;-85
2023/06/01 19:00:55;;;;;;;28.00;4.45;;;;;;;19.36;43.81;99017.00;6141980;23;20017;-87
2023/06/01 19:03:22;;;;;;;21.52;4.78;;;;;;;19.31;43.74;99014.59;6115457;23;20549;-85
2023/06/01 19:05:48;;;;;;;20.83;5.15;;;;;;;19.20;44.25;99008.94;6114945;23;20018;-84
2023/06/01 19:08:20;;;;;;;15.50;4.75;;;;;;;19.17;44.46;99006.09;6141666;23;20045;-83
2023/06/01 19:10:58;;;;;;;17.50;5.28;;;;;;;19.14;44.57;99013.22;6140916;23;20021;-83
2023/06/01 19:13:27;;;;;;;;;;;;;;;19.11;45.24;99022.28;6141556;23;20013;-84
2023/06/01 19:15:59;;;;;;;17.00;5.18;;;;;;;19.05;45.25;99009.91;6114651;23;19973;-87
2023/06/01 19:18:26;;;;;;;35.85;6.75;;;;;;;18.92;45.58;99000.25;6116047;23;20017;-83
2023/06/01 19:21:12;;;;;;;17.52;4.88;;;;;;;18.95;45.20;99019.69;6115725;23;20403;-83